createdAt,value
2018-05-02T00:00:50.843Z,94.67
2018-05-02T00:03:20.729Z,94.82
2018-05-02T00:05:51.917Z,95.32
2018-05-02T00:08:22.424Z,95.08
2018-05-02T00:10:52.260Z,95.27
2018-05-02T00:13:23.695Z,95.36
2018-05-02T00:15:53.804Z,95.38
2018-05-02T00:18:23.341Z,95.03
2018-05-02T00:20:52.931Z,95.42
2018-05-02T00:23:22.775Z,95.55
2018-05-02T00:25:54.189Z,95.56
2018-05-02T00:28:27.685Z,95.81
2018-05-02T00:30:57.189Z,95.86
2018-05-02T00:33:30.110Z,96.10
2018-05-02T00:35:59.941Z,96.27
2018-05-02T00:38:29.629Z,96.81
2018-05-02T00:40:59.233Z,96.92
2018-05-02T00:43:29.320Z,96.93
2018-05-02T00:45:58.825Z,96.76
2018-05-02T00:48:28.397Z,96.94
2018-05-02T00:50:58.152Z,96.80
2018-05-02T00:53:27.770Z,97.02
2018-05-02T00:55:57.555Z,96.93
2018-05-02T00:58:27.809Z,97.03
2018-05-02T01:00:57.413Z,96.97
2018-05-02T01:03:27.171Z,97.06
2018-05-02T01:05:57.219Z,97.13
2018-05-02T01:08:28.289Z,97.17
2018-05-02T01:10:59.028Z,97.12
2018-05-02T01:13:29.788Z,97.25
2018-05-02T01:16:02.060Z,97.36
2018-05-02T01:18:32.361Z,97.31
2018-05-02T01:21:03.778Z,97.21
2018-05-02T01:23:34.174Z,97.26
2018-05-02T01:26:03.858Z,97.31
2018-05-02T01:28:35.040Z,97.36
2018-05-02T01:31:05.014Z,97.65
2018-05-02T01:33:35.148Z,97.65
2018-05-02T01:36:05.260Z,97.62
2018-05-02T01:38:38.513Z,97.66
2018-05-02T01:41:09.589Z,97.76
2018-05-02T01:43:39.814Z,97.81
2018-05-02T01:46:10.366Z,97.87
2018-05-02T01:48:58.499Z,98.01
2018-05-02T01:51:28.288Z,97.99
2018-05-02T01:53:58.293Z,97.98
2018-05-02T01:56:31.073Z,98.21
2018-05-02T01:59:02.801Z,98.38
2018-05-02T02:01:33.818Z,98.49
2018-05-02T02:04:09.845Z,98.51
2018-05-02T02:06:40.354Z,98.51
2018-05-02T02:09:10.606Z,98.41
2018-05-02T02:11:41.645Z,98.36
2018-05-02T02:14:12.266Z,98.36
2018-05-02T02:16:42.399Z,98.42
2018-05-02T02:19:13.501Z,98.34
2018-05-02T02:21:46.537Z,98.25
2018-05-02T02:24:20.746Z,98.31
2018-05-02T02:26:50.751Z,98.43
2018-05-02T02:29:20.786Z,98.39
2018-05-02T02:31:50.543Z,98.62
2018-05-02T02:34:20.555Z,98.41
2018-05-02T02:36:50.855Z,98.32
2018-05-02T02:39:20.874Z,98.61
2018-05-02T02:41:50.885Z,98.80
2018-05-02T02:44:20.676Z,98.76
2018-05-02T02:46:51.400Z,98.78
2018-05-02T02:49:22.081Z,98.97
2018-05-02T02:51:54.684Z,98.94
2018-05-02T02:54:26.949Z,99.06
2018-05-02T02:56:57.078Z,99.18
2018-05-02T02:59:27.371Z,99.23
2018-05-02T03:01:58.714Z,99.57
2018-05-02T03:04:30.750Z,99.84
2018-05-02T03:07:01.402Z,99.64
2018-05-02T03:09:31.199Z,99.95
2018-05-02T03:12:02.282Z,100.00
2018-05-02T03:14:34.333Z,100.00
2018-05-02T03:17:04.270Z,100.00
2018-05-02T03:19:35.096Z,100.00
2018-05-02T03:22:06.814Z,100.00
2018-05-02T03:24:41.009Z,100.00
2018-05-02T03:27:11.318Z,100.00
2018-05-02T03:29:41.276Z,100.00
2018-05-02T03:32:11.523Z,100.00
2018-05-02T03:34:42.557Z,100.00
2018-05-02T03:37:13.243Z,100.00
2018-05-02T03:39:44.529Z,100.00
2018-05-02T03:42:14.483Z,100.00
2018-05-02T03:44:49.937Z,100.00
2018-05-02T03:47:23.466Z,100.00
2018-05-02T03:49:55.466Z,100.00
2018-05-02T03:52:25.019Z,100.00
2018-05-02T03:54:55.500Z,100.00
2018-05-02T03:57:25.298Z,100.00
2018-05-02T04:00:12.687Z,100.00
2018-05-02T04:16:25.682Z,100.00
2018-05-02T04:18:55.255Z,100.00
2018-05-02T04:21:24.764Z,100.00
2018-05-02T04:23:54.868Z,100.00
2018-05-02T04:26:24.369Z,100.00
2018-05-02T04:28:53.991Z,100.00
2018-05-02T04:31:23.666Z,100.00
2018-05-02T04:33:53.184Z,100.00
2018-05-02T04:36:22.674Z,100.00
2018-05-02T04:38:53.089Z,100.00
2018-05-02T04:41:23.583Z,100.00
2018-05-02T04:43:53.189Z,99.94
2018-05-02T04:46:22.804Z,100.00
2018-05-02T04:48:52.333Z,99.78
2018-05-02T04:51:22.098Z,99.70
2018-05-02T04:53:51.930Z,99.70
2018-05-02T04:56:21.508Z,99.94
2018-05-02T04:58:51.155Z,100.00
2018-05-02T05:01:20.737Z,99.90
2018-05-02T05:03:50.465Z,100.00
2018-05-02T05:06:20.165Z,100.00
2018-05-02T05:08:49.682Z,100.00
2018-05-02T05:11:19.350Z,100.00
2018-05-02T05:13:49.102Z,100.00
2018-05-02T05:16:19.199Z,99.69
2018-05-02T05:18:48.989Z,99.63
2018-05-02T05:21:18.745Z,98.16
2018-05-02T05:23:48.364Z,97.69
2018-05-02T05:26:17.877Z,96.92
2018-05-02T05:28:47.483Z,96.14
2018-05-02T05:31:18.461Z,95.91
2018-05-02T05:33:48.130Z,96.20
2018-05-02T05:36:17.806Z,96.42
2018-05-02T05:38:47.346Z,96.86
2018-05-02T05:41:17.050Z,97.09
2018-05-02T05:43:46.554Z,95.70
2018-05-02T05:46:17.183Z,96.07
2018-05-02T05:48:46.653Z,95.61
2018-05-02T05:51:17.699Z,95.31
2018-05-02T05:53:47.166Z,95.34
2018-05-02T05:56:16.787Z,94.64
2018-05-02T05:58:47.003Z,93.85
2018-05-02T06:01:17.263Z,92.21
2018-05-02T06:03:47.184Z,90.59
2018-05-02T06:06:16.823Z,87.78
2018-05-02T06:08:46.564Z,89.05
2018-05-02T06:11:16.121Z,89.06
2018-05-02T06:13:50.620Z,88.61
2018-05-02T06:16:20.262Z,88.87
2018-05-02T06:18:50.177Z,89.42
2018-05-02T06:21:21.089Z,88.61
2018-05-02T06:23:51.620Z,88.67
2018-05-02T06:26:21.496Z,87.92
2018-05-02T06:28:51.491Z,87.64
2018-05-02T06:31:21.046Z,86.98
2018-05-02T06:33:51.658Z,88.18
2018-05-02T06:36:22.023Z,87.68
2018-05-02T06:38:51.647Z,87.67
2018-05-02T06:41:21.361Z,88.67
2018-05-02T06:43:50.924Z,88.43
2018-05-02T06:46:21.608Z,88.73
2018-05-02T06:48:51.217Z,87.73
2018-05-02T06:51:25.328Z,87.00
2018-05-02T06:53:55.713Z,87.25
2018-05-02T06:56:25.510Z,85.79
2018-05-02T06:58:56.000Z,87.12
2018-05-02T07:01:25.707Z,86.32
2018-05-02T07:03:56.985Z,86.45
2018-05-02T07:06:26.665Z,85.49
2018-05-02T07:08:56.573Z,84.90
2018-05-02T07:11:26.257Z,85.29
2018-05-02T07:13:56.287Z,85.53
2018-05-02T07:16:26.009Z,85.62
2018-05-02T07:18:56.487Z,84.79
2018-05-02T07:21:30.884Z,83.43
2018-05-02T07:24:02.616Z,81.10
2018-05-02T07:26:33.288Z,77.31
2018-05-02T07:29:06.680Z,73.31
2018-05-02T07:31:43.636Z,68.22
2018-05-02T07:34:13.391Z,68.39
2018-05-02T07:36:43.629Z,66.52
2018-05-02T07:39:13.286Z,63.56
2018-05-02T07:41:43.065Z,64.38
2018-05-02T07:44:12.550Z,63.72
2018-05-02T07:46:43.084Z,63.85
2018-05-02T07:49:13.561Z,68.07
2018-05-02T07:51:43.286Z,64.97
2018-05-02T07:54:12.786Z,67.07
2018-05-02T07:56:43.665Z,64.03
2018-05-02T07:59:28.879Z,63.13
2018-05-02T08:05:21.625Z,62.33
2018-05-02T08:07:52.346Z,59.80
2018-05-02T08:10:22.103Z,61.57
2018-05-02T08:12:51.731Z,61.85
2018-05-02T08:18:02.390Z,63.65
2018-05-02T08:20:32.167Z,63.73
2018-05-02T08:23:02.614Z,64.21
2018-05-02T08:25:32.420Z,64.17
2018-05-02T08:28:02.042Z,65.75
2018-05-02T08:30:31.525Z,63.13
2018-05-02T08:33:01.242Z,61.78
2018-05-02T08:35:31.890Z,59.97
2018-05-02T08:38:02.834Z,59.36
2018-05-02T08:40:32.410Z,55.70
2018-05-02T08:43:02.730Z,52.47
2018-05-02T08:45:34.368Z,53.62
2018-05-02T08:48:04.237Z,50.29
2018-05-02T08:50:33.851Z,48.90
2018-05-02T08:53:03.461Z,46.31
2018-05-02T08:55:33.178Z,45.77
2018-05-02T08:58:02.978Z,45.33
2018-05-02T09:00:32.624Z,43.53
2018-05-02T09:03:04.030Z,42.25
2018-05-02T09:05:33.707Z,39.87
2018-05-02T09:08:04.093Z,39.07
2018-05-02T09:10:33.635Z,42.60
2018-05-02T09:13:03.278Z,42.92
2018-05-02T09:15:32.808Z,44.59
2018-05-02T09:18:03.890Z,47.63
2018-05-02T09:20:33.571Z,50.57
2018-05-02T09:23:03.164Z,49.79
2018-05-02T09:25:32.942Z,49.77
2018-05-02T09:28:03.413Z,53.20
2018-05-02T09:30:35.271Z,52.98
2018-05-02T09:33:05.282Z,53.17
2018-05-02T09:35:35.318Z,52.61
2018-05-02T09:38:05.317Z,54.92
2018-05-02T09:40:35.008Z,52.56
2018-05-02T09:43:04.746Z,52.18
2018-05-02T09:45:34.222Z,49.91
2018-05-02T09:48:03.731Z,47.86
2018-05-02T09:50:33.422Z,45.72
2018-05-02T09:53:03.060Z,44.89
2018-05-02T09:55:32.788Z,42.59
2018-05-02T09:58:02.368Z,40.32
2018-05-02T10:00:31.960Z,38.54
2018-05-02T10:03:02.442Z,37.56
2018-05-02T10:05:32.002Z,38.39
2018-05-02T10:08:01.625Z,39.63
2018-05-02T10:10:31.358Z,41.18
2018-05-02T10:13:00.945Z,43.95
2018-05-02T10:15:31.905Z,43.60
2018-05-02T10:18:01.619Z,44.38
2018-05-02T10:20:31.184Z,46.18
2018-05-02T10:23:01.374Z,45.44
2018-05-02T10:25:35.300Z,43.27
2018-05-02T10:28:12.064Z,46.18
2018-05-02T10:30:42.743Z,45.04
2018-05-02T10:33:12.685Z,48.61
2018-05-02T10:35:42.632Z,47.09
2018-05-02T10:38:14.590Z,48.00
2018-05-02T10:40:44.277Z,47.49
2018-05-02T10:43:17.277Z,48.22
2018-05-02T10:45:48.566Z,45.38
2018-05-02T10:48:26.257Z,43.95
2018-05-02T10:50:57.252Z,42.61
2018-05-02T10:53:35.346Z,42.75
2018-05-02T10:56:05.576Z,41.39
2018-05-02T10:58:35.177Z,41.19
2018-05-02T11:01:05.101Z,43.12
2018-05-02T11:03:34.636Z,41.89
2018-05-02T11:06:05.119Z,41.26
2018-05-02T11:08:34.612Z,41.11
2018-05-02T11:11:04.165Z,41.86
2018-05-02T11:13:33.933Z,40.74
2018-05-02T11:16:03.539Z,38.49
2018-05-02T11:18:33.179Z,37.84
2018-05-02T11:21:02.889Z,37.63
2018-05-02T11:23:32.601Z,39.04
2018-05-02T11:26:02.221Z,40.54
2018-05-02T11:28:32.132Z,41.42
2018-05-02T11:31:02.563Z,41.06
2018-05-02T11:33:32.455Z,39.98
2018-05-02T11:36:02.141Z,40.16
2018-05-02T11:38:31.893Z,39.16
2018-05-02T11:41:01.439Z,38.34
2018-05-02T11:43:31.730Z,41.12
2018-05-02T11:46:01.740Z,38.90
2018-05-02T11:48:31.280Z,38.46
2018-05-02T11:51:01.016Z,39.79
2018-05-02T11:53:31.490Z,40.64
2018-05-02T11:56:10.516Z,38.74
2018-05-02T11:58:40.305Z,41.04
2018-05-02T12:01:09.799Z,41.91
2018-05-02T12:03:39.847Z,40.63
2018-05-02T12:06:09.861Z,39.54
2018-05-02T12:08:39.911Z,38.73
2018-05-02T12:11:09.443Z,37.66
2018-05-02T12:13:39.814Z,39.36
2018-05-02T12:16:09.559Z,40.23
2018-05-02T12:18:39.501Z,41.21
2018-05-02T12:21:09.121Z,40.95
2018-05-02T12:23:38.902Z,43.37
2018-05-02T12:26:08.575Z,44.67
2018-05-02T12:28:38.536Z,45.38
2018-05-02T12:31:08.997Z,45.48
2018-05-02T12:33:38.973Z,46.73
2018-05-02T12:36:08.659Z,46.73
2018-05-02T12:38:39.750Z,47.38
2018-05-02T12:41:09.974Z,46.81
2018-05-02T12:43:40.510Z,47.40
2018-05-02T12:46:09.989Z,47.37
2018-05-02T12:48:40.544Z,46.94
2018-05-02T12:51:10.032Z,47.21
2018-05-02T12:53:39.791Z,46.32
2018-05-02T12:56:09.478Z,45.60
2018-05-02T12:58:39.528Z,45.32
2018-05-02T13:01:09.053Z,45.04
2018-05-02T13:06:30.361Z,46.66
2018-05-02T13:08:59.940Z,47.14
2018-05-02T13:11:29.565Z,48.25
2018-05-02T13:13:59.105Z,45.98
2018-05-02T13:16:29.310Z,45.90
2018-05-02T13:18:58.905Z,47.15
2018-05-02T13:21:28.469Z,46.75
2018-05-02T13:23:57.934Z,46.73
2018-05-02T13:26:27.550Z,47.18
2018-05-02T13:28:58.334Z,48.10
2018-05-02T13:31:27.956Z,46.74
2018-05-02T13:33:57.458Z,47.35
2018-05-02T13:36:28.106Z,45.00
2018-05-02T13:38:57.762Z,44.28
2018-05-02T13:41:27.258Z,44.23
2018-05-02T13:43:56.871Z,46.76
2018-05-02T13:46:26.340Z,45.49
2018-05-02T13:48:56.041Z,46.67
2018-05-02T13:51:28.388Z,46.92
2018-05-02T13:54:08.617Z,48.57
2018-05-02T13:56:38.618Z,48.91
2018-05-02T13:59:09.059Z,49.45
2018-05-02T14:01:39.690Z,48.75
2018-05-02T14:04:09.205Z,49.56
2018-05-02T14:06:39.726Z,50.08
2018-05-02T14:09:11.311Z,49.63
2018-05-02T14:11:41.794Z,48.79
2018-05-02T14:14:11.508Z,48.04
2018-05-02T14:16:41.209Z,48.42
2018-05-02T14:19:10.851Z,48.15
2018-05-02T14:21:40.487Z,49.78
2018-05-02T14:24:10.903Z,50.96
2018-05-02T14:26:41.485Z,51.64
2018-05-02T14:29:11.196Z,53.20
2018-05-02T14:31:50.414Z,54.07
2018-05-02T14:34:20.124Z,54.08
2018-05-02T14:36:49.822Z,54.75
2018-05-02T14:39:19.561Z,54.85
2018-05-02T14:41:49.422Z,56.32
2018-05-02T14:44:21.781Z,58.35
2018-05-02T14:46:52.137Z,60.01
2018-05-02T14:49:21.642Z,62.44
2018-05-02T14:51:52.109Z,63.44
2018-05-02T14:54:21.808Z,64.12
2018-05-02T14:56:51.428Z,62.50
2018-05-02T14:59:22.510Z,65.18
2018-05-02T15:01:52.808Z,66.09
2018-05-02T15:04:22.550Z,66.40
2018-05-02T15:06:52.271Z,65.55
2018-05-02T15:09:22.635Z,62.60
2018-05-02T15:11:58.594Z,62.82
2018-05-02T15:14:28.376Z,64.51
2018-05-02T15:16:58.849Z,66.56
2018-05-02T15:19:28.419Z,67.33
2018-05-02T15:21:58.124Z,68.62
2018-05-02T15:24:27.816Z,68.67
2018-05-02T15:27:00.446Z,70.33
2018-05-02T15:29:30.098Z,71.43
2018-05-02T15:32:00.401Z,71.62
2018-05-02T15:34:30.005Z,71.40
2018-05-02T15:37:01.168Z,73.42
2018-05-02T15:39:31.451Z,73.92
2018-05-02T15:42:00.974Z,74.07
2018-05-02T15:44:30.508Z,73.72
2018-05-02T15:47:00.024Z,70.16
2018-05-02T15:49:29.558Z,70.21
2018-05-02T15:51:59.307Z,71.22
2018-05-02T15:54:29.002Z,70.71
2018-05-02T15:57:00.209Z,71.80
2018-05-02T15:59:29.725Z,72.99
2018-05-02T16:01:59.198Z,73.29
2018-05-02T16:04:29.564Z,71.68
2018-05-02T16:09:38.427Z,71.39
2018-05-02T16:12:08.151Z,71.93
2018-05-02T16:14:38.415Z,72.80
2018-05-02T16:17:09.180Z,72.46
2018-05-02T16:19:40.114Z,73.57
2018-05-02T16:22:11.905Z,73.80
2018-05-02T16:24:41.449Z,75.20
2018-05-02T16:27:11.011Z,74.95
2018-05-02T16:29:40.727Z,76.35
2018-05-02T16:32:11.263Z,76.85
2018-05-02T16:34:40.901Z,76.13
2018-05-02T16:37:10.435Z,75.55
2018-05-02T16:39:40.142Z,73.50
2018-05-02T16:42:10.665Z,72.80
2018-05-02T16:44:41.244Z,74.40
2018-05-02T16:47:10.783Z,75.44
2018-05-02T16:49:40.290Z,76.37
2018-05-02T16:52:10.665Z,78.64
2018-05-02T16:54:40.308Z,80.45
2018-05-02T16:57:10.209Z,82.42
2018-05-02T16:59:39.777Z,83.44
2018-05-02T17:02:09.279Z,84.36
2018-05-02T17:04:40.029Z,84.72
2018-05-02T17:07:09.668Z,84.87
2018-05-02T17:09:39.566Z,83.55
2018-05-02T17:12:09.053Z,83.15
2018-05-02T17:14:39.119Z,83.76
2018-05-02T17:17:08.718Z,84.32
2018-05-02T17:19:38.863Z,84.49
2018-05-02T17:22:09.184Z,84.18
2018-05-02T17:24:39.001Z,83.05
2018-05-02T17:27:08.692Z,81.65
2018-05-02T17:29:38.695Z,82.13
2018-05-02T17:34:50.849Z,75.99
2018-05-02T17:37:21.347Z,76.18
2018-05-02T17:40:00.433Z,76.29
2018-05-02T17:42:32.625Z,76.65
2018-05-02T17:45:02.363Z,78.49
2018-05-02T17:47:34.735Z,80.35
2018-05-02T17:50:13.495Z,81.75
2018-05-02T17:52:48.360Z,82.22
2018-05-02T17:55:20.042Z,83.43
2018-05-02T17:57:53.436Z,83.74
2018-05-02T18:00:24.257Z,84.03
2018-05-02T18:02:53.794Z,84.66
2018-05-02T18:05:23.277Z,84.82
2018-05-02T18:07:53.184Z,85.07
2018-05-02T18:10:22.914Z,85.39
2018-05-02T18:12:52.728Z,85.68
2018-05-02T18:15:22.197Z,86.00
2018-05-02T18:17:51.802Z,86.32
2018-05-02T18:20:21.538Z,85.74
2018-05-02T18:22:51.145Z,85.79
2018-05-02T18:25:21.599Z,86.31
2018-05-02T18:27:51.089Z,86.42
2018-05-02T18:30:21.419Z,86.50
2018-05-02T18:32:51.130Z,86.47
2018-05-02T18:35:20.626Z,86.47
2018-05-02T18:37:50.187Z,86.16
2018-05-02T18:40:20.456Z,86.63
2018-05-02T18:43:01.813Z,86.14
2018-05-02T18:45:31.448Z,85.73
2018-05-02T18:48:01.881Z,85.51
2018-05-02T18:50:31.382Z,85.49
2018-05-02T18:53:01.033Z,86.06
2018-05-02T18:55:30.516Z,85.60
2018-05-02T18:58:01.208Z,86.10
2018-05-02T19:00:31.563Z,85.58
2018-05-02T19:03:01.091Z,86.04
2018-05-02T19:05:30.582Z,86.36
2018-05-02T19:08:00.110Z,86.82
2018-05-02T19:10:29.767Z,87.21
2018-05-02T19:12:59.520Z,87.61
2018-05-02T19:15:29.126Z,87.59
2018-05-02T19:18:04.264Z,87.95
2018-05-02T19:20:36.759Z,87.75
2018-05-02T19:23:06.389Z,87.89
2018-05-02T19:25:42.265Z,87.94
2018-05-02T19:28:12.061Z,87.98
2018-05-02T19:30:41.920Z,88.16
2018-05-02T19:33:17.270Z,87.84
2018-05-02T19:35:48.120Z,87.73
2018-05-02T19:38:17.699Z,87.32
2018-05-02T19:40:53.257Z,86.71
2018-05-02T19:43:28.308Z,86.41
2018-05-02T19:45:58.005Z,85.78
2018-05-02T19:48:27.682Z,85.74
2018-05-02T19:51:03.181Z,85.24
2018-05-02T19:53:33.172Z,85.07
2018-05-02T19:56:08.886Z,84.98
2018-05-02T19:58:43.136Z,85.27
2018-05-02T20:01:18.892Z,85.90
2018-05-02T20:03:59.324Z,86.25
2018-05-02T20:06:47.500Z,86.18
2018-05-02T20:12:44.702Z,86.26
2018-05-02T20:15:17.278Z,85.80
2018-05-02T20:17:47.440Z,85.13
2018-05-02T20:20:25.498Z,85.02
2018-05-02T20:22:57.042Z,84.74
2018-05-02T20:25:27.253Z,84.98
2018-05-02T20:27:56.876Z,84.77
2018-05-02T20:30:26.699Z,84.61
2018-05-02T20:32:56.220Z,85.23
2018-05-02T20:35:26.825Z,85.24
2018-05-02T20:38:00.110Z,85.36
2018-05-02T20:40:33.429Z,84.61
2018-05-02T20:43:02.967Z,84.07
2018-05-02T20:45:33.444Z,84.78
2018-05-02T20:48:03.956Z,84.90
2018-05-02T20:50:33.794Z,84.92
2018-05-02T20:53:04.275Z,85.29
2018-05-02T20:55:44.521Z,84.98
2018-05-02T20:58:15.034Z,84.83
2018-05-02T21:00:44.628Z,85.00
2018-05-02T21:03:14.208Z,84.51
2018-05-02T21:05:43.904Z,84.99
2018-05-02T21:08:13.648Z,84.96
2018-05-02T21:10:43.166Z,84.58
2018-05-02T21:13:12.865Z,83.78
2018-05-02T21:15:43.294Z,84.21
2018-05-02T21:18:12.922Z,84.68
2018-05-02T21:20:43.814Z,84.69
2018-05-02T21:23:13.542Z,84.63
2018-05-02T21:25:43.149Z,84.16
2018-05-02T21:28:13.011Z,83.78
2018-05-02T21:30:43.380Z,83.40
2018-05-02T21:33:13.375Z,82.86
2018-05-02T21:35:43.325Z,82.35
2018-05-02T21:38:12.858Z,82.18
2018-05-02T21:40:42.440Z,82.12
2018-05-02T21:43:13.075Z,82.12
2018-05-02T21:45:49.902Z,82.37
2018-05-02T21:48:21.743Z,82.15
2018-05-02T21:50:51.244Z,81.70
2018-05-02T21:53:25.890Z,81.69
2018-05-02T21:56:03.583Z,81.44
2018-05-02T21:58:36.807Z,81.68
2018-05-02T22:01:07.457Z,81.90
2018-05-02T22:03:37.669Z,82.03
2018-05-02T22:06:14.093Z,82.41
2018-05-02T22:08:44.661Z,82.39
2018-05-02T22:11:14.665Z,82.90
2018-05-02T22:13:51.726Z,83.11
2018-05-02T22:16:23.348Z,82.94
2018-05-02T22:18:58.576Z,83.48
2018-05-02T22:21:28.465Z,83.34
2018-05-02T22:24:06.205Z,83.22
2018-05-02T22:26:37.476Z,82.20
2018-05-02T22:29:07.226Z,81.83
2018-05-02T22:31:38.094Z,81.44
2018-05-02T22:34:12.132Z,81.25
2018-05-02T22:36:42.967Z,81.27
2018-05-02T22:39:13.489Z,81.36
2018-05-02T22:41:43.857Z,81.81
2018-05-02T22:44:13.530Z,82.38
2018-05-02T22:46:43.137Z,82.45
2018-05-02T22:49:12.954Z,82.73
2018-05-02T22:51:43.417Z,82.58
2018-05-02T22:54:12.913Z,82.21
2018-05-02T22:56:45.035Z,82.22
2018-05-02T22:59:14.705Z,82.23
2018-05-02T23:01:45.185Z,82.45
2018-05-02T23:04:14.882Z,82.17
2018-05-02T23:06:44.705Z,81.89
2018-05-02T23:09:14.706Z,81.17
2018-05-02T23:11:44.528Z,80.45
2018-05-02T23:14:14.316Z,80.32
2018-05-02T23:16:44.144Z,79.69
2018-05-02T23:19:13.894Z,79.58
2018-05-02T23:21:43.685Z,79.74
2018-05-02T23:24:13.465Z,80.47
2018-05-02T23:26:43.003Z,80.46
2018-05-02T23:29:12.713Z,80.62
2018-05-02T23:31:42.856Z,80.50
2018-05-02T23:34:13.151Z,80.83
2018-05-02T23:36:42.876Z,80.94
2018-05-02T23:39:12.617Z,80.37
2018-05-02T23:41:42.907Z,79.91
2018-05-02T23:44:12.419Z,80.63
2018-05-02T23:46:42.897Z,80.52
2018-05-02T23:49:12.748Z,80.47
2018-05-02T23:51:42.336Z,80.44
2018-05-02T23:54:11.932Z,80.37
2018-05-02T23:56:46.137Z,79.85
2018-05-02T23:59:15.795Z,79.51
